sensor_id;sensor_type;location;lat;lon;timestamp;P1;durP1;ratioP1;P2;durP2;ratioP2
47896;SDS011;39629;51.400;5.494;2023-05-10T00:03:42;10.98;;;5.47;;
47896;SDS011;39629;51.400;5.494;2023-05-10T00:08:44;11.25;;;6.03;;
47896;SDS011;39629;51.400;5.494;2023-05-10T00:13:47;9.73;;;5.60;;
47896;SDS011;39629;51.400;5.494;2023-05-10T00:18:49;12.90;;;6.50;;
47896;SDS011;39629;51.400;5.494;2023-05-10T00:23:50;10.93;;;6.20;;
47896;SDS011;39629;51.400;5.494;2023-05-10T00:28:53;10.30;;;5.18;;
47896;SDS011;39629;51.400;5.494;2023-05-10T00:33:55;14.10;;;7.43;;
47896;SDS011;39629;51.400;5.494;2023-05-10T00:38:57;16.23;;;8.45;;
47896;SDS011;39629;51.400;5.494;2023-05-10T00:44:01;19.50;;;9.27;;
47896;SDS011;39629;51.400;5.494;2023-05-10T00:49:03;17.48;;;8.02;;
47896;SDS011;39629;51.400;5.494;2023-05-10T00:54:05;19.42;;;9.40;;
47896;SDS011;39629;51.400;5.494;2023-05-10T00:59:08;16.30;;;7.72;;
47896;SDS011;39629;51.400;5.494;2023-05-10T01:04:10;24.52;;;10.45;;
47896;SDS011;39629;51.400;5.494;2023-05-10T01:09:12;19.88;;;9.48;;
47896;SDS011;39629;51.400;5.494;2023-05-10T01:14:15;21.33;;;9.45;;
47896;SDS011;39629;51.400;5.494;2023-05-10T01:19:21;17.67;;;8.07;;
47896;SDS011;39629;51.400;5.494;2023-05-10T01:24:39;22.95;;;10.55;;
47896;SDS011;39629;51.400;5.494;2023-05-10T01:30:07;16.83;;;7.60;;
47896;SDS011;39629;51.400;5.494;2023-05-10T01:35:19;21.65;;;9.98;;
47896;SDS011;39629;51.400;5.494;2023-05-10T01:40:29;24.52;;;10.40;;
47896;SDS011;39629;51.400;5.494;2023-05-10T01:45:37;20.73;;;9.52;;
47896;SDS011;39629;51.400;5.494;2023-05-10T01:50:45;22.70;;;10.52;;
47896;SDS011;39629;51.400;5.494;2023-05-10T01:55:51;21.60;;;9.80;;
47896;SDS011;39629;51.400;5.494;2023-05-10T02:00:55;21.67;;;9.50;;
47896;SDS011;39629;51.400;5.494;2023-05-10T02:06:00;18.67;;;9.05;;
47896;SDS011;39629;51.400;5.494;2023-05-10T02:11:03;20.48;;;9.07;;
47896;SDS011;39629;51.400;5.494;2023-05-10T02:16:07;19.53;;;9.23;;
47896;SDS011;39629;51.400;5.494;2023-05-10T02:21:10;24.88;;;11.60;;
47896;SDS011;39629;51.400;5.494;2023-05-10T02:26:14;23.33;;;10.98;;
47896;SDS011;39629;51.400;5.494;2023-05-10T02:31:18;28.40;;;11.70;;
47896;SDS011;39629;51.400;5.494;2023-05-10T02:36:22;29.92;;;12.88;;
47896;SDS011;39629;51.400;5.494;2023-05-10T02:41:24;29.20;;;13.05;;
47896;SDS011;39629;51.400;5.494;2023-05-10T02:46:27;33.25;;;14.13;;
47896;SDS011;39629;51.400;5.494;2023-05-10T02:51:31;31.52;;;14.77;;
47896;SDS011;39629;51.400;5.494;2023-05-10T02:56:36;33.00;;;14.95;;
47896;SDS011;39629;51.400;5.494;2023-05-10T03:01:43;31.90;;;14.20;;
47896;SDS011;39629;51.400;5.494;2023-05-10T03:06:46;24.98;;;12.40;;
47896;SDS011;39629;51.400;5.494;2023-05-10T03:11:49;33.75;;;14.70;;
47896;SDS011;39629;51.400;5.494;2023-05-10T03:16:59;32.50;;;14.70;;
47896;SDS011;39629;51.400;5.494;2023-05-10T03:22:08;31.55;;;13.57;;
47896;SDS011;39629;51.400;5.494;2023-05-10T03:27:12;24.92;;;12.30;;
47896;SDS011;39629;51.400;5.494;2023-05-10T03:32:16;22.23;;;9.77;;
47896;SDS011;39629;51.400;5.494;2023-05-10T03:37:19;24.15;;;11.48;;
47896;SDS011;39629;51.400;5.494;2023-05-10T03:42:21;18.45;;;9.13;;
47896;SDS011;39629;51.400;5.494;2023-05-10T03:47:22;25.67;;;10.93;;
47896;SDS011;39629;51.400;5.494;2023-05-10T03:52:26;27.85;;;12.45;;
47896;SDS011;39629;51.400;5.494;2023-05-10T03:57:27;29.05;;;11.90;;
47896;SDS011;39629;51.400;5.494;2023-05-10T04:02:29;34.17;;;12.60;;
47896;SDS011;39629;51.400;5.494;2023-05-10T04:07:32;28.50;;;12.25;;
47896;SDS011;39629;51.400;5.494;2023-05-10T04:12:34;33.45;;;13.32;;
47896;SDS011;39629;51.400;5.494;2023-05-10T04:17:35;44.60;;;16.13;;
47896;SDS011;39629;51.400;5.494;2023-05-10T04:22:39;38.60;;;14.38;;
47896;SDS011;39629;51.400;5.494;2023-05-10T04:27:40;45.63;;;15.85;;
47896;SDS011;39629;51.400;5.494;2023-05-10T04:32:42;43.42;;;14.77;;
47896;SDS011;39629;51.400;5.494;2023-05-10T04:37:45;44.40;;;16.02;;
47896;SDS011;39629;51.400;5.494;2023-05-10T04:42:46;44.65;;;15.48;;
47896;SDS011;39629;51.400;5.494;2023-05-10T04:47:48;37.78;;;13.25;;
47896;SDS011;39629;51.400;5.494;2023-05-10T04:52:51;41.03;;;15.20;;
47896;SDS011;39629;51.400;5.494;2023-05-10T04:57:52;35.28;;;14.05;;
47896;SDS011;39629;51.400;5.494;2023-05-10T05:02:55;44.63;;;15.35;;
47896;SDS011;39629;51.400;5.494;2023-05-10T05:07:58;39.13;;;14.50;;
47896;SDS011;39629;51.400;5.494;2023-05-10T05:12:59;39.38;;;14.05;;
47896;SDS011;39629;51.400;5.494;2023-05-10T05:18:01;35.42;;;14.13;;
47896;SDS011;39629;51.400;5.494;2023-05-10T05:23:04;36.63;;;14.23;;
47896;SDS011;39629;51.400;5.494;2023-05-10T05:28:05;34.00;;;13.23;;
47896;SDS011;39629;51.400;5.494;2023-05-10T05:33:07;32.15;;;13.48;;
47896;SDS011;39629;51.400;5.494;2023-05-10T05:38:10;24.88;;;10.77;;
47896;SDS011;39629;51.400;5.494;2023-05-10T05:43:12;26.42;;;11.70;;
47896;SDS011;39629;51.400;5.494;2023-05-10T05:48:14;25.88;;;11.05;;
47896;SDS011;39629;51.400;5.494;2023-05-10T05:53:16;25.80;;;10.98;;
47896;SDS011;39629;51.400;5.494;2023-05-10T05:58:18;23.40;;;10.98;;
47896;SDS011;39629;51.400;5.494;2023-05-10T06:03:20;22.13;;;10.77;;
47896;SDS011;39629;51.400;5.494;2023-05-10T06:08:22;23.73;;;9.75;;
47896;SDS011;39629;51.400;5.494;2023-05-10T06:13:24;19.45;;;9.25;;
47896;SDS011;39629;51.400;5.494;2023-05-10T06:18:28;21.48;;;10.40;;
47896;SDS011;39629;51.400;5.494;2023-05-10T06:23:31;23.42;;;9.85;;
47896;SDS011;39629;51.400;5.494;2023-05-10T06:28:33;25.65;;;10.27;;
47896;SDS011;39629;51.400;5.494;2023-05-10T06:33:34;19.08;;;9.20;;
47896;SDS011;39629;51.400;5.494;2023-05-10T06:38:37;25.05;;;10.27;;
47896;SDS011;39629;51.400;5.494;2023-05-10T06:43:39;20.67;;;9.75;;
47896;SDS011;39629;51.400;5.494;2023-05-10T06:48:41;21.92;;;10.95;;
47896;SDS011;39629;51.400;5.494;2023-05-10T06:53:44;19.45;;;9.93;;
47896;SDS011;39629;51.400;5.494;2023-05-10T06:58:45;22.02;;;10.82;;
47896;SDS011;39629;51.400;5.494;2023-05-10T07:03:47;20.60;;;10.80;;
47896;SDS011;39629;51.400;5.494;2023-05-10T07:08:50;25.05;;;11.65;;
47896;SDS011;39629;51.400;5.494;2023-05-10T07:13:51;21.52;;;10.43;;
47896;SDS011;39629;51.400;5.494;2023-05-10T07:18:53;22.17;;;11.15;;
47896;SDS011;39629;51.400;5.494;2023-05-10T07:23:56;18.58;;;9.35;;
47896;SDS011;39629;51.400;5.494;2023-05-10T07:28:58;17.85;;;9.20;;
47896;SDS011;39629;51.400;5.494;2023-05-10T07:33:59;16.55;;;8.68;;
47896;SDS011;39629;51.400;5.494;2023-05-10T07:39:02;15.13;;;8.02;;
47896;SDS011;39629;51.400;5.494;2023-05-10T07:44:04;13.25;;;7.35;;
47896;SDS011;39629;51.400;5.494;2023-05-10T07:49:06;11.05;;;6.25;;
47896;SDS011;39629;51.400;5.494;2023-05-10T07:54:09;11.82;;;5.68;;
47896;SDS011;39629;51.400;5.494;2023-05-10T07:59:14;10.60;;;5.38;;
47896;SDS011;39629;51.400;5.494;2023-05-10T08:04:16;15.48;;;7.47;;
47896;SDS011;39629;51.400;5.494;2023-05-10T08:09:19;13.10;;;5.78;;
47896;SDS011;39629;51.400;5.494;2023-05-10T08:14:23;10.93;;;5.70;;
47896;SDS011;39629;51.400;5.494;2023-05-10T08:19:25;9.75;;;4.55;;
47896;SDS011;39629;51.400;5.494;2023-05-10T08:24:28;8.65;;;4.90;;
47896;SDS011;39629;51.400;5.494;2023-05-10T08:29:29;8.18;;;4.40;;
47896;SDS011;39629;51.400;5.494;2023-05-10T08:34:31;9.05;;;4.45;;
47896;SDS011;39629;51.400;5.494;2023-05-10T08:39:35;10.02;;;5.00;;
47896;SDS011;39629;51.400;5.494;2023-05-10T08:44:36;8.80;;;4.97;;
47896;SDS011;39629;51.400;5.494;2023-05-10T08:49:38;8.07;;;4.70;;
47896;SDS011;39629;51.400;5.494;2023-05-10T08:54:42;10.80;;;4.93;;
47896;SDS011;39629;51.400;5.494;2023-05-10T08:59:44;6.87;;;4.40;;
47896;SDS011;39629;51.400;5.494;2023-05-10T09:04:46;9.57;;;4.63;;
47896;SDS011;39629;51.400;5.494;2023-05-10T09:09:50;7.15;;;4.72;;
47896;SDS011;39629;51.400;5.494;2023-05-10T09:19:57;6.72;;;4.30;;
47896;SDS011;39629;51.400;5.494;2023-05-10T09:25:07;8.18;;;5.13;;
47896;SDS011;39629;51.400;5.494;2023-05-10T09:30:14;9.07;;;4.88;;
47896;SDS011;39629;51.400;5.494;2023-05-10T09:35:17;9.18;;;4.80;;
47896;SDS011;39629;51.400;5.494;2023-05-10T09:40:22;8.07;;;4.82;;
47896;SDS011;39629;51.400;5.494;2023-05-10T09:45:25;9.35;;;4.68;;
47896;SDS011;39629;51.400;5.494;2023-05-10T09:50:28;7.78;;;4.30;;
47896;SDS011;39629;51.400;5.494;2023-05-10T09:55:39;6.13;;;4.10;;
47896;SDS011;39629;51.400;5.494;2023-05-10T10:00:43;6.80;;;3.90;;
47896;SDS011;39629;51.400;5.494;2023-05-10T10:05:48;7.53;;;4.85;;
47896;SDS011;39629;51.400;5.494;2023-05-10T10:10:51;6.25;;;3.60;;
47896;SDS011;39629;51.400;5.494;2023-05-10T10:15:53;6.18;;;3.63;;
47896;SDS011;39629;51.400;5.494;2023-05-10T10:20:55;5.82;;;2.72;;
47896;SDS011;39629;51.400;5.494;2023-05-10T10:25:59;4.43;;;2.63;;
47896;SDS011;39629;51.400;5.494;2023-05-10T10:31:02;6.40;;;3.00;;
47896;SDS011;39629;51.400;5.494;2023-05-10T10:36:18;4.65;;;3.03;;
47896;SDS011;39629;51.400;5.494;2023-05-10T10:41:28;7.50;;;4.28;;
47896;SDS011;39629;51.400;5.494;2023-05-10T10:46:33;9.60;;;5.82;;
47896;SDS011;39629;51.400;5.494;2023-05-10T10:51:36;10.68;;;6.50;;
47896;SDS011;39629;51.400;5.494;2023-05-10T10:56:39;10.43;;;6.63;;
47896;SDS011;39629;51.400;5.494;2023-05-10T11:01:41;12.32;;;7.40;;
47896;SDS011;39629;51.400;5.494;2023-05-10T11:06:44;9.40;;;6.20;;
47896;SDS011;39629;51.400;5.494;2023-05-10T11:11:50;9.48;;;5.93;;
47896;SDS011;39629;51.400;5.494;2023-05-10T11:16:55;9.60;;;6.07;;
47896;SDS011;39629;51.400;5.494;2023-05-10T11:22:11;12.98;;;6.57;;
47896;SDS011;39629;51.400;5.494;2023-05-10T11:27:15;10.43;;;6.32;;
47896;SDS011;39629;51.400;5.494;2023-05-10T11:32:17;11.33;;;6.27;;
47896;SDS011;39629;51.400;5.494;2023-05-10T11:37:20;11.87;;;7.33;;
47896;SDS011;39629;51.400;5.494;2023-05-10T11:42:23;11.70;;;6.95;;
47896;SDS011;39629;51.400;5.494;2023-05-10T11:47:24;12.68;;;7.30;;
47896;SDS011;39629;51.400;5.494;2023-05-10T11:52:26;11.32;;;6.78;;
47896;SDS011;39629;51.400;5.494;2023-05-10T11:57:30;12.63;;;7.18;;
47896;SDS011;39629;51.400;5.494;2023-05-10T12:02:32;10.93;;;6.93;;
47896;SDS011;39629;51.400;5.494;2023-05-10T12:07:33;13.23;;;7.18;;
47896;SDS011;39629;51.400;5.494;2023-05-10T12:12:39;10.02;;;6.32;;
47896;SDS011;39629;51.400;5.494;2023-05-10T12:17:43;10.68;;;6.93;;
47896;SDS011;39629;51.400;5.494;2023-05-10T12:22:46;15.32;;;7.22;;
47896;SDS011;39629;51.400;5.494;2023-05-10T12:27:52;10.05;;;5.93;;
47896;SDS011;39629;51.400;5.494;2023-05-10T12:32:59;11.38;;;6.10;;
47896;SDS011;39629;51.400;5.494;2023-05-10T12:38:01;10.73;;;5.60;;
47896;SDS011;39629;51.400;5.494;2023-05-10T12:43:33;11.30;;;5.88;;
47896;SDS011;39629;51.400;5.494;2023-05-10T12:48:35;11.50;;;5.80;;
47896;SDS011;39629;51.400;5.494;2023-05-10T12:53:38;9.23;;;5.38;;
47896;SDS011;39629;51.400;5.494;2023-05-10T12:58:41;8.93;;;6.07;;
47896;SDS011;39629;51.400;5.494;2023-05-10T13:03:47;6.95;;;4.35;;
47896;SDS011;39629;51.400;5.494;2023-05-10T13:08:49;6.78;;;3.42;;
47896;SDS011;39629;51.400;5.494;2023-05-10T13:13:53;4.97;;;2.63;;
47896;SDS011;39629;51.400;5.494;2023-05-10T13:18:54;4.13;;;2.80;;
47896;SDS011;39629;51.400;5.494;2023-05-10T13:23:56;5.20;;;3.85;;
47896;SDS011;39629;51.400;5.494;2023-05-10T13:28:59;5.10;;;3.75;;
47896;SDS011;39629;51.400;5.494;2023-05-10T13:34:00;6.17;;;3.93;;
47896;SDS011;39629;51.400;5.494;2023-05-10T13:39:02;6.40;;;4.05;;
47896;SDS011;39629;51.400;5.494;2023-05-10T13:44:06;6.80;;;4.35;;
47896;SDS011;39629;51.400;5.494;2023-05-10T13:49:08;8.20;;;5.40;;
47896;SDS011;39629;51.400;5.494;2023-05-10T13:54:10;9.95;;;6.30;;
47896;SDS011;39629;51.400;5.494;2023-05-10T13:59:13;11.27;;;5.70;;
47896;SDS011;39629;51.400;5.494;2023-05-10T14:04:15;8.73;;;5.73;;
47896;SDS011;39629;51.400;5.494;2023-05-10T14:09:17;5.97;;;3.88;;
47896;SDS011;39629;51.400;5.494;2023-05-10T14:14:19;7.07;;;3.60;;
47896;SDS011;39629;51.400;5.494;2023-05-10T14:19:21;13.35;;;6.43;;
47896;SDS011;39629;51.400;5.494;2023-05-10T14:24:23;4.45;;;2.50;;
47896;SDS011;39629;51.400;5.494;2023-05-10T14:29:25;4.03;;;2.30;;
47896;SDS011;39629;51.400;5.494;2023-05-10T14:34:27;5.72;;;2.10;;
47896;SDS011;39629;51.400;5.494;2023-05-10T14:39:29;2.70;;;1.70;;
47896;SDS011;39629;51.400;5.494;2023-05-10T14:44:31;5.40;;;1.88;;
47896;SDS011;39629;51.400;5.494;2023-05-10T14:49:33;3.78;;;2.00;;
47896;SDS011;39629;51.400;5.494;2023-05-10T14:54:35;4.75;;;2.05;;
47896;SDS011;39629;51.400;5.494;2023-05-10T14:59:37;6.03;;;3.10;;
47896;SDS011;39629;51.400;5.494;2023-05-10T15:04:39;3.55;;;2.10;;
47896;SDS011;39629;51.400;5.494;2023-05-10T15:09:41;7.03;;;2.78;;
47896;SDS011;39629;51.400;5.494;2023-05-10T15:14:43;4.22;;;2.50;;
47896;SDS011;39629;51.400;5.494;2023-05-10T15:19:45;5.53;;;2.47;;
47896;SDS011;39629;51.400;5.494;2023-05-10T15:24:47;5.78;;;2.90;;
47896;SDS011;39629;51.400;5.494;2023-05-10T15:29:49;4.72;;;2.65;;
47896;SDS011;39629;51.400;5.494;2023-05-10T15:34:51;4.55;;;2.42;;
47896;SDS011;39629;51.400;5.494;2023-05-10T15:39:52;4.60;;;2.40;;
47896;SDS011;39629;51.400;5.494;2023-05-10T15:44:55;5.45;;;2.65;;
47896;SDS011;39629;51.400;5.494;2023-05-10T15:49:57;5.22;;;2.78;;
47896;SDS011;39629;51.400;5.494;2023-05-10T15:54:59;3.42;;;2.45;;
47896;SDS011;39629;51.400;5.494;2023-05-10T16:00:02;4.43;;;2.35;;
47896;SDS011;39629;51.400;5.494;2023-05-10T16:05:12;4.78;;;2.80;;
47896;SDS011;39629;51.400;5.494;2023-05-10T16:10:14;6.53;;;2.70;;
47896;SDS011;39629;51.400;5.494;2023-05-10T16:15:17;4.78;;;2.63;;
47896;SDS011;39629;51.400;5.494;2023-05-10T16:20:19;6.57;;;3.05;;
47896;SDS011;39629;51.400;5.494;2023-05-10T16:25:21;7.38;;;3.05;;
47896;SDS011;39629;51.400;5.494;2023-05-10T16:30:24;5.03;;;2.65;;
47896;SDS011;39629;51.400;5.494;2023-05-10T16:35:26;6.03;;;2.78;;
47896;SDS011;39629;51.400;5.494;2023-05-10T16:40:29;5.55;;;2.67;;
47896;SDS011;39629;51.400;5.494;2023-05-10T16:45:32;4.75;;;2.80;;
47896;SDS011;39629;51.400;5.494;2023-05-10T16:50:33;3.92;;;2.75;;
47896;SDS011;39629;51.400;5.494;2023-05-10T16:55:35;4.68;;;2.65;;
47896;SDS011;39629;51.400;5.494;2023-05-10T17:00:38;5.03;;;2.92;;
47896;SDS011;39629;51.400;5.494;2023-05-10T17:05:39;4.15;;;2.83;;
47896;SDS011;39629;51.400;5.494;2023-05-10T17:10:42;4.85;;;2.80;;
47896;SDS011;39629;51.400;5.494;2023-05-10T17:15:45;5.60;;;3.42;;
47896;SDS011;39629;51.400;5.494;2023-05-10T17:20:47;6.07;;;3.07;;
47896;SDS011;39629;51.400;5.494;2023-05-10T17:25:48;8.63;;;3.80;;
47896;SDS011;39629;51.400;5.494;2023-05-10T17:30:55;3.83;;;2.92;;
47896;SDS011;39629;51.400;5.494;2023-05-10T17:35:57;5.13;;;3.40;;
47896;SDS011;39629;51.400;5.494;2023-05-10T17:40:59;6.57;;;3.88;;
47896;SDS011;39629;51.400;5.494;2023-05-10T17:46:01;7.07;;;4.10;;
47896;SDS011;39629;51.400;5.494;2023-05-10T17:51:03;6.90;;;3.83;;
47896;SDS011;39629;51.400;5.494;2023-05-10T17:56:05;5.95;;;3.20;;
47896;SDS011;39629;51.400;5.494;2023-05-10T18:01:08;6.55;;;4.38;;
47896;SDS011;39629;51.400;5.494;2023-05-10T18:06:10;4.97;;;3.40;;
47896;SDS011;39629;51.400;5.494;2023-05-10T18:11:12;6.05;;;3.92;;
47896;SDS011;39629;51.400;5.494;2023-05-10T18:16:15;6.88;;;3.92;;
47896;SDS011;39629;51.400;5.494;2023-05-10T18:21:16;6.85;;;4.32;;
47896;SDS011;39629;51.400;5.494;2023-05-10T18:26:18;6.72;;;4.22;;
47896;SDS011;39629;51.400;5.494;2023-05-10T18:31:21;7.07;;;4.55;;
47896;SDS011;39629;51.400;5.494;2023-05-10T18:36:23;5.80;;;4.07;;
47896;SDS011;39629;51.400;5.494;2023-05-10T18:41:24;6.07;;;3.80;;
47896;SDS011;39629;51.400;5.494;2023-05-10T18:46:28;7.72;;;4.05;;
47896;SDS011;39629;51.400;5.494;2023-05-10T18:51:29;5.85;;;4.13;;
47896;SDS011;39629;51.400;5.494;2023-05-10T18:56:31;6.68;;;4.07;;
47896;SDS011;39629;51.400;5.494;2023-05-10T19:01:34;13.85;;;4.20;;
47896;SDS011;39629;51.400;5.494;2023-05-10T19:06:36;5.85;;;4.03;;
47896;SDS011;39629;51.400;5.494;2023-05-10T19:11:37;5.55;;;3.83;;
47896;SDS011;39629;51.400;5.494;2023-05-10T19:16:40;7.20;;;4.32;;
47896;SDS011;39629;51.400;5.494;2023-05-10T19:21:42;5.88;;;3.85;;
47896;SDS011;39629;51.400;5.494;2023-05-10T19:26:43;17.55;;;5.50;;
47896;SDS011;39629;51.400;5.494;2023-05-10T19:31:46;6.95;;;3.85;;
47896;SDS011;39629;51.400;5.494;2023-05-10T19:36:48;6.88;;;4.20;;
47896;SDS011;39629;51.400;5.494;2023-05-10T19:41:50;9.57;;;4.63;;
47896;SDS011;39629;51.400;5.494;2023-05-10T19:46:53;7.97;;;4.25;;
47896;SDS011;39629;51.400;5.494;2023-05-10T19:51:54;8.60;;;4.32;;
47896;SDS011;39629;51.400;5.494;2023-05-10T19:56:56;6.95;;;3.90;;
47896;SDS011;39629;51.400;5.494;2023-05-10T20:01:59;6.85;;;4.53;;
47896;SDS011;39629;51.400;5.494;2023-05-10T20:07:00;6.88;;;4.50;;
47896;SDS011;39629;51.400;5.494;2023-05-10T20:12:02;7.30;;;4.68;;
47896;SDS011;39629;51.400;5.494;2023-05-10T20:17:05;8.45;;;5.20;;
47896;SDS011;39629;51.400;5.494;2023-05-10T20:22:07;7.25;;;3.72;;
47896;SDS011;39629;51.400;5.494;2023-05-10T20:27:09;6.35;;;4.00;;
47896;SDS011;39629;51.400;5.494;2023-05-10T20:32:12;8.32;;;4.32;;
47896;SDS011;39629;51.400;5.494;2023-05-10T20:37:13;8.45;;;3.92;;
47896;SDS011;39629;51.400;5.494;2023-05-10T20:42:16;8.35;;;4.57;;
47896;SDS011;39629;51.400;5.494;2023-05-10T20:47:19;8.02;;;4.95;;
47896;SDS011;39629;51.400;5.494;2023-05-10T20:52:22;7.93;;;5.05;;
47896;SDS011;39629;51.400;5.494;2023-05-10T20:57:23;7.97;;;4.95;;
47896;SDS011;39629;51.400;5.494;2023-05-10T21:02:26;9.98;;;5.75;;
47896;SDS011;39629;51.400;5.494;2023-05-10T21:07:28;10.90;;;5.30;;
47896;SDS011;39629;51.400;5.494;2023-05-10T21:12:31;8.73;;;5.50;;
47896;SDS011;39629;51.400;5.494;2023-05-10T21:17:34;8.93;;;5.55;;
47896;SDS011;39629;51.400;5.494;2023-05-10T21:22:36;10.05;;;6.10;;
47896;SDS011;39629;51.400;5.494;2023-05-10T21:27:37;9.80;;;5.43;;
47896;SDS011;39629;51.400;5.494;2023-05-10T21:32:40;9.18;;;5.38;;
47896;SDS011;39629;51.400;5.494;2023-05-10T21:37:42;11.68;;;5.43;;
47896;SDS011;39629;51.400;5.494;2023-05-10T21:42:43;9.02;;;5.00;;
47896;SDS011;39629;51.400;5.494;2023-05-10T21:47:49;10.13;;;5.38;;
47896;SDS011;39629;51.400;5.494;2023-05-10T21:52:51;10.52;;;5.30;;
47896;SDS011;39629;51.400;5.494;2023-05-10T21:57:53;8.00;;;5.13;;
47896;SDS011;39629;51.400;5.494;2023-05-10T22:02:55;9.45;;;5.78;;
47896;SDS011;39629;51.400;5.494;2023-05-10T22:07:57;9.63;;;5.30;;
47896;SDS011;39629;51.400;5.494;2023-05-10T22:12:59;9.20;;;5.18;;
47896;SDS011;39629;51.400;5.494;2023-05-10T22:18:01;8.50;;;4.55;;
47896;SDS011;39629;51.400;5.494;2023-05-10T22:23:03;9.10;;;5.70;;
47896;SDS011;39629;51.400;5.494;2023-05-10T22:28:05;9.77;;;5.68;;
47896;SDS011;39629;51.400;5.494;2023-05-10T22:33:08;10.88;;;5.60;;
47896;SDS011;39629;51.400;5.494;2023-05-10T22:38:10;10.07;;;6.15;;
47896;SDS011;39629;51.400;5.494;2023-05-10T22:43:12;10.15;;;5.88;;
47896;SDS011;39629;51.400;5.494;2023-05-10T22:48:14;9.07;;;5.20;;
47896;SDS011;39629;51.400;5.494;2023-05-10T22:53:16;8.15;;;5.13;;
47896;SDS011;39629;51.400;5.494;2023-05-10T22:58:18;9.75;;;5.15;;
47896;SDS011;39629;51.400;5.494;2023-05-10T23:03:21;11.50;;;6.38;;
47896;SDS011;39629;51.400;5.494;2023-05-10T23:08:22;9.48;;;5.55;;
47896;SDS011;39629;51.400;5.494;2023-05-10T23:13:24;9.48;;;5.35;;
47896;SDS011;39629;51.400;5.494;2023-05-10T23:18:27;9.05;;;5.38;;
47896;SDS011;39629;51.400;5.494;2023-05-10T23:23:28;9.68;;;5.55;;
47896;SDS011;39629;51.400;5.494;2023-05-10T23:28:31;10.23;;;5.38;;
47896;SDS011;39629;51.400;5.494;2023-05-10T23:33:34;8.23;;;5.00;;
47896;SDS011;39629;51.400;5.494;2023-05-10T23:38:36;13.35;;;6.43;;
47896;SDS011;39629;51.400;5.494;2023-05-10T23:43:38;11.27;;;6.10;;
47896;SDS011;39629;51.400;5.494;2023-05-10T23:48:41;10.00;;;5.78;;
47896;SDS011;39629;51.400;5.494;2023-05-10T23:53:42;8.82;;;4.72;;
47896;SDS011;39629;51.400;5.494;2023-05-10T23:58:44;10.77;;;5.80;;
